createdAt,value
2022-08-03T00:04:34.493Z,67167.28
2022-08-03T00:09:38.215Z,67165.72
2022-08-03T00:14:41.851Z,67165.59
2022-08-03T00:19:46.960Z,67142.03
2022-08-03T00:24:50.655Z,67164.03
2022-08-03T00:29:59.499Z,67127.91
2022-08-03T00:35:09.170Z,67177.59
2022-08-03T00:40:16.724Z,67172.25
2022-08-03T00:45:21.886Z,67203.50
2022-08-03T00:50:28.701Z,67257.50
2022-08-03T00:55:32.642Z,67181.91
2022-08-03T01:00:38.957Z,67218.56
2022-08-03T01:05:56.693Z,67179.22
2022-08-03T01:11:08.204Z,67131.09
2022-08-03T01:16:19.487Z,67125.16
2022-08-03T01:21:29.214Z,67114.97
2022-08-03T01:26:49.862Z,67195.47
2022-08-03T01:32:53.348Z,67058.25
2022-08-03T01:37:29.494Z,67064.81
2022-08-03T01:42:34.992Z,67194.88
2022-08-03T01:47:41.269Z,67198.09
2022-08-03T01:52:46.214Z,67211.66
2022-08-03T01:58:05.819Z,67188.31
2022-08-03T02:03:14.954Z,67215.91
2022-08-03T02:08:20.300Z,67253.66
2022-08-03T02:13:25.782Z,67239.03
2022-08-03T02:18:32.195Z,67230.03
2022-08-03T02:23:36.046Z,67291.53
2022-08-03T02:28:43.119Z,67267.25
2022-08-03T02:33:51.839Z,67187.78
2022-08-03T02:39:01.043Z,67199.72
2022-08-03T02:44:09.618Z,67255.34
2022-08-03T02:49:50.776Z,67270.47
2022-08-03T02:54:43.170Z,67304.44
2022-08-03T02:59:48.299Z,67228.81
2022-08-03T03:05:50.640Z,67220.09
2022-08-03T03:10:18.757Z,67191.00
2022-08-03T03:15:23.217Z,67172.81
2022-08-03T03:20:30.627Z,67168.94
2022-08-03T03:25:35.471Z,67124.75
2022-08-03T03:30:39.661Z,67136.56
2022-08-03T03:35:46.958Z,67112.75
2022-08-03T03:40:50.811Z,67095.00
2022-08-03T03:45:55.876Z,67171.72
2022-08-03T03:51:02.304Z,67215.38
2022-08-03T03:56:06.112Z,67280.19
2022-08-03T04:01:10.445Z,67249.94
2022-08-03T04:06:34.255Z,67229.56
2022-08-03T04:11:40.683Z,67186.38
2022-08-03T04:16:47.373Z,67301.19
2022-08-03T04:21:57.304Z,67245.09
2022-08-03T04:27:03.820Z,67289.31
2022-08-03T04:32:09.265Z,67257.03
2022-08-03T04:37:15.864Z,67212.13
2022-08-03T04:42:23.615Z,67274.25
2022-08-03T04:47:28.156Z,67324.56
2022-08-03T04:52:35.120Z,67286.06
2022-08-03T04:57:39.706Z,67261.34
2022-08-03T05:02:43.675Z,67255.81
2022-08-03T05:07:48.876Z,67318.56
2022-08-03T05:12:53.985Z,67344.44
2022-08-03T05:17:57.744Z,67362.88
2022-08-03T05:23:04.017Z,67382.88
2022-08-03T05:28:07.742Z,67382.31
2022-08-03T05:33:12.002Z,67423.34
2022-08-03T05:38:23.993Z,67395.72
2022-08-03T05:43:33.223Z,67423.97
2022-08-03T05:48:40.300Z,67406.09
2022-08-03T05:53:46.835Z,67374.16
2022-08-03T05:58:51.796Z,67393.06
2022-08-03T06:03:55.655Z,67421.31
2022-08-03T06:09:00.848Z,67491.53
2022-08-03T06:14:05.146Z,67385.03
2022-08-03T06:19:09.144Z,67382.28
2022-08-03T06:24:14.129Z,67381.31
2022-08-03T06:29:19.452Z,67391.03
2022-08-03T06:34:32.353Z,67423.97
2022-08-03T06:39:40.395Z,67464.03
2022-08-03T06:44:44.340Z,67494.25
2022-08-03T06:50:17.091Z,67449.91
2022-08-03T06:55:15.850Z,67512.59
2022-08-03T07:00:20.157Z,67500.22
2022-08-03T07:05:23.875Z,67543.97
2022-08-03T07:10:29.169Z,67586.78
2022-08-03T07:15:55.843Z,67672.34
2022-08-03T07:20:56.950Z,67716.25
2022-08-03T07:26:02.053Z,67655.03
2022-08-03T07:31:08.045Z,67653.47
2022-08-03T07:36:11.731Z,67738.34
2022-08-03T07:41:17.031Z,67852.78
2022-08-03T07:46:20.853Z,67888.03
2022-08-03T07:51:24.699Z,67834.34
2022-08-03T07:56:30.159Z,67901.03
2022-08-03T08:01:36.776Z,67780.13
2022-08-03T08:06:40.634Z,67804.56
2022-08-03T08:11:45.626Z,67799.66
2022-08-03T08:16:49.778Z,67875.53
2022-08-03T08:22:02.637Z,67826.72
2022-08-03T08:27:08.868Z,67947.72
2022-08-03T08:32:14.990Z,67983.03
2022-08-03T08:37:19.115Z,68018.22
2022-08-03T08:42:24.265Z,68079.63
2022-08-03T08:47:51.455Z,68129.50
2022-08-03T08:52:56.214Z,68209.38
2022-08-03T08:58:06.235Z,68213.13
2022-08-03T09:03:10.333Z,68252.31
2022-08-03T09:08:16.385Z,68190.91
2022-08-03T09:13:22.130Z,68120.38
2022-08-03T09:18:33.445Z,68051.91
2022-08-03T09:24:01.408Z,68035.13
2022-08-03T09:29:14.428Z,67968.34
2022-08-03T09:34:19.655Z,68029.16
2022-08-03T09:39:41.275Z,68057.81
2022-08-03T09:44:49.015Z,67991.13
2022-08-03T09:50:01.818Z,68042.09
2022-08-03T09:56:01.606Z,68021.47
2022-08-03T10:00:55.253Z,68072.56
2022-08-03T10:06:00.226Z,68176.25
2022-08-03T10:11:03.797Z,68155.59
2022-08-03T10:16:21.762Z,68042.66
2022-08-03T10:21:35.061Z,68031.25
2022-08-03T10:26:49.873Z,68213.72
2022-08-03T10:31:58.640Z,68264.22
2022-08-03T10:37:09.527Z,68290.38
2022-08-03T10:42:14.992Z,68277.94
2022-08-03T10:47:20.493Z,68214.84
2022-08-03T10:52:30.308Z,68127.91
2022-08-03T10:57:47.430Z,68181.03
2022-08-03T11:03:14.565Z,68206.06
2022-08-03T11:08:27.994Z,68261.47
2022-08-03T11:13:34.053Z,68315.38
2022-08-03T11:18:57.366Z,68432.81
2022-08-03T11:24:03.965Z,68459.97
2022-08-03T11:29:31.902Z,68578.09
2022-08-03T11:35:09.571Z,68670.72
2022-08-03T11:40:34.541Z,68818.31
2022-08-03T11:45:39.623Z,68534.53
2022-08-03T11:50:46.377Z,68593.91
2022-08-03T11:55:50.073Z,68471.44
2022-08-03T12:00:54.787Z,68459.50
2022-08-03T12:06:01.795Z,68806.88
2022-08-03T12:11:09.319Z,69066.50
2022-08-03T12:16:19.603Z,68992.88
2022-08-03T12:21:25.206Z,69055.56
2022-08-03T12:26:30.021Z,69079.06
2022-08-03T12:31:33.722Z,68608.03
2022-08-03T12:36:39.336Z,68531.81
2022-08-03T12:41:43.335Z,68312.16
2022-08-03T12:46:48.051Z,68277.75
2022-08-03T12:52:05.475Z,68231.13
2022-08-03T12:57:21.206Z,68276.19
2022-08-03T13:02:28.789Z,68419.78
2022-08-03T13:07:44.266Z,68509.56
2022-08-03T13:12:54.287Z,68612.91
2022-08-03T13:18:01.051Z,68589.53
2022-08-03T13:23:06.123Z,68670.63
2022-08-03T13:28:19.263Z,68881.03
2022-08-03T13:33:23.264Z,68792.72
2022-08-03T13:38:28.543Z,68844.00
2022-08-03T13:43:32.499Z,68933.31
2022-08-03T13:48:37.634Z,68876.16
2022-08-03T13:53:43.250Z,68849.94
2022-08-03T13:58:47.232Z,68964.47
2022-08-03T14:03:54.183Z,68827.63
2022-08-03T14:09:00.784Z,68599.31
2022-08-03T14:14:04.436Z,68434.41
2022-08-03T14:19:08.482Z,68489.34
2022-08-03T14:24:14.101Z,68333.75
2022-08-03T14:29:17.739Z,68395.81
2022-08-03T14:34:21.539Z,68407.25
2022-08-03T14:39:26.591Z,68383.28
2022-08-03T14:44:30.324Z,68343.59
2022-08-03T14:50:38.132Z,68366.47
2022-08-03T14:55:00.019Z,68302.81
2022-08-03T15:00:04.255Z,68381.13
2022-08-03T15:05:09.178Z,68443.66
2022-08-03T15:10:14.265Z,68549.22
2022-08-03T15:15:17.995Z,68635.81
2022-08-03T15:20:36.444Z,68752.38
2022-08-03T15:26:28.283Z,68788.84
2022-08-03T15:31:11.681Z,68824.84
2022-08-03T15:36:22.543Z,68799.81
2022-08-03T15:41:27.632Z,68934.47
2022-08-03T15:46:31.317Z,68804.72
2022-08-03T15:51:35.206Z,68943.16
2022-08-03T15:56:41.817Z,68805.81
2022-08-03T16:01:45.496Z,68817.78
2022-08-03T16:06:49.670Z,68823.28
2022-08-03T16:11:54.832Z,68691.81
2022-08-03T16:16:58.489Z,68490.47
2022-08-03T16:22:02.294Z,68352.25
2022-08-03T16:27:36.650Z,68335.34
2022-08-03T16:32:31.958Z,68226.25
2022-08-03T16:37:38.795Z,68206.06
2022-08-03T16:42:44.342Z,68182.69
2022-08-03T16:48:01.288Z,68110.97
2022-08-03T16:53:09.813Z,68123.00
2022-08-03T16:58:19.561Z,68101.25
2022-08-03T17:03:42.620Z,68106.19
2022-08-03T17:09:09.238Z,68071.34
2022-08-03T17:14:17.014Z,67993.69
2022-08-03T17:19:23.007Z,67996.44
2022-08-03T17:24:32.515Z,68016.56
2022-08-03T17:29:44.899Z,67979.69
2022-08-03T17:34:49.642Z,67937.91
2022-08-03T17:39:59.238Z,67948.78
2022-08-03T17:45:06.634Z,67930.22
2022-08-03T17:50:24.875Z,67909.66
2022-08-03T17:55:56.823Z,67908.00
2022-08-03T18:01:59.150Z,67900.97
2022-08-03T18:06:56.281Z,67910.69
2022-08-03T18:12:05.740Z,67865.72
2022-08-03T18:17:22.798Z,67904.72
2022-08-03T18:22:28.020Z,67854.81
2022-08-03T18:27:45.545Z,67856.53
2022-08-03T18:33:01.041Z,67840.25
2022-08-03T18:38:16.765Z,67809.88
2022-08-03T18:43:21.115Z,67620.25
2022-08-03T18:48:54.375Z,67533.09
2022-08-03T18:54:07.762Z,67500.09
2022-08-03T18:59:16.960Z,67400.53
2022-08-03T19:04:41.221Z,67362.94
2022-08-03T19:09:49.255Z,67348.63
2022-08-03T19:14:56.350Z,67343.84
2022-08-03T19:20:03.684Z,67293.16
2022-08-03T19:30:39.872Z,67404.97
2022-08-03T19:35:55.565Z,67323.94
2022-08-03T19:41:04.039Z,67249.94
2022-08-03T19:46:13.373Z,67258.53
2022-08-03T19:51:26.994Z,67214.16
2022-08-03T19:56:47.949Z,67198.09
2022-08-03T20:01:51.657Z,67196.91
2022-08-03T20:06:58.895Z,67157.56
2022-08-03T20:12:03.268Z,67157.56
2022-08-03T20:17:09.314Z,67155.41
2022-08-03T20:22:14.903Z,67193.16
2022-08-03T20:27:22.069Z,67162.41
2022-08-03T20:32:34.589Z,67155.25
2022-08-03T20:37:40.038Z,67075.53
2022-08-03T20:42:45.692Z,67071.22
2022-08-03T20:47:51.103Z,67070.16
2022-08-03T20:52:56.265Z,67077.63
2022-08-03T20:58:00.942Z,67128.88
2022-08-03T21:03:08.983Z,67230.50
2022-08-03T21:08:16.993Z,67144.47
2022-08-03T21:13:10.549Z,67290.41
2022-08-03T21:13:27.005Z,67153.09
2022-08-03T21:18:35.684Z,67184.56
2022-08-03T21:23:49.185Z,67123.56
2022-08-03T21:28:56.884Z,67065.81
2022-08-03T21:34:03.362Z,67097.09
2022-08-03T21:39:10.332Z,67140.28
2022-08-03T21:44:14.168Z,67089.53
2022-08-03T21:50:07.141Z,67065.28
2022-08-03T21:54:44.827Z,67077.09
2022-08-03T21:59:55.191Z,67092.25
2022-08-03T22:04:59.187Z,67104.59
2022-08-03T22:10:08.069Z,67081.47
2022-08-03T22:15:13.745Z,67024.34
2022-08-03T22:20:17.392Z,67049.66
2022-08-03T22:25:24.557Z,67028.53
2022-08-03T22:30:28.590Z,67079.84
2022-08-03T22:35:44.359Z,67035.69
2022-08-03T22:40:53.892Z,67069.66
2022-08-03T22:46:10.628Z,67064.28
2022-08-03T22:51:17.184Z,67016.66
2022-08-03T22:56:28.000Z,66967.75
2022-08-03T23:01:36.362Z,67007.09
2022-08-03T23:06:44.093Z,67042.56
2022-08-03T23:11:49.527Z,67066.44
2022-08-03T23:16:55.314Z,67053.47
2022-08-03T23:22:03.341Z,66967.63
2022-08-03T23:27:09.809Z,66990.91
2022-08-03T23:32:14.686Z,66962.28
2022-08-03T23:37:20.501Z,66939.06
2022-08-03T23:42:26.556Z,66926.63
2022-08-03T23:47:46.563Z,66909.41
2022-08-03T23:52:58.953Z,66989.84
2022-08-03T23:58:11.124Z,66982.84
